createdAt,value
2018-02-22T00:00:36.730Z,18.77
2018-02-22T00:03:04.201Z,17.37
2018-02-22T00:05:31.680Z,18.77
2018-02-22T00:07:59.262Z,16.83
2018-02-22T00:10:27.510Z,17.23
2018-02-22T00:12:54.994Z,19.47
2018-02-22T00:15:23.225Z,19.90
2018-02-22T00:17:50.706Z,18.27
2018-02-22T00:20:18.933Z,19.50
2018-02-22T00:22:46.414Z,20.10
2018-02-22T00:25:13.893Z,20.27
2018-02-22T00:27:42.124Z,18.70
2018-02-22T00:30:09.594Z,20.00
2018-02-22T00:32:37.069Z,19.43
2018-02-22T00:35:05.315Z,17.60
2018-02-22T00:37:32.841Z,17.60
2018-02-22T00:40:01.074Z,19.10
2018-02-22T00:42:28.557Z,18.60
2018-02-22T00:44:56.803Z,17.70
2018-02-22T00:47:24.278Z,19.90
2018-02-22T00:49:51.753Z,16.60
2018-02-22T00:52:20.012Z,19.43
2018-02-22T00:54:47.485Z,19.33
2018-02-22T00:57:15.917Z,18.63
2018-02-22T00:59:43.540Z,18.27
2018-02-22T01:02:11.788Z,19.17
2018-02-22T01:04:39.277Z,18.83
2018-02-22T01:07:06.757Z,18.80
2018-02-22T01:09:34.244Z,18.33
2018-02-22T01:12:01.708Z,18.77
2018-02-22T01:14:35.132Z,19.20
2018-02-22T01:17:03.430Z,19.03
2018-02-22T01:19:31.140Z,17.93
2018-02-22T01:21:58.646Z,18.60
2018-02-22T01:24:26.293Z,18.90
2018-02-22T01:26:54.521Z,17.60
2018-02-22T01:29:22.003Z,18.53
2018-02-22T01:31:49.465Z,17.97
2018-02-22T01:34:16.950Z,18.00
2018-02-22T01:36:45.277Z,19.70
2018-02-22T01:39:12.763Z,20.27
2018-02-22T01:41:41.020Z,18.40
2018-02-22T01:44:08.485Z,18.13
2018-02-22T01:46:35.953Z,17.73
2018-02-22T01:49:04.194Z,17.87
2018-02-22T01:51:31.765Z,19.33
2018-02-22T01:53:59.274Z,19.47
2018-02-22T01:56:26.915Z,19.23
2018-02-22T01:58:55.146Z,18.73
2018-02-22T02:01:22.632Z,18.87
2018-02-22T02:03:50.241Z,18.23
2018-02-22T02:06:17.841Z,18.20
2018-02-22T02:08:45.801Z,17.73
2018-02-22T02:11:13.351Z,19.70
2018-02-22T02:13:41.036Z,17.77
2018-02-22T02:16:08.707Z,18.10
2018-02-22T02:18:36.187Z,17.40
2018-02-22T02:21:04.421Z,17.13
2018-02-22T02:23:31.892Z,17.80
2018-02-22T02:26:00.117Z,18.03
2018-02-22T02:28:28.162Z,18.40
2018-02-22T02:30:55.643Z,18.30
2018-02-22T02:33:23.114Z,18.10
2018-02-22T02:35:50.609Z,17.50
2018-02-22T02:38:18.082Z,18.40
2018-02-22T02:40:46.414Z,17.83
2018-02-22T02:43:13.828Z,17.47
2018-02-22T02:45:41.310Z,16.97
2018-02-22T02:48:08.909Z,18.13
2018-02-22T02:50:36.499Z,17.33
2018-02-22T02:53:04.749Z,18.93
2018-02-22T02:55:32.205Z,16.70
2018-02-22T02:57:59.691Z,17.33
2018-02-22T03:00:27.166Z,16.87
2018-02-22T03:02:54.786Z,17.23
2018-02-22T03:05:23.772Z,17.60
2018-02-22T03:07:51.236Z,16.40
2018-02-22T03:10:18.704Z,16.40
2018-02-22T03:12:46.931Z,16.90
2018-02-22T03:15:14.416Z,17.33
2018-02-22T03:17:41.972Z,18.13
2018-02-22T03:20:09.552Z,16.37
2018-02-22T03:22:37.782Z,18.30
2018-02-22T03:25:05.253Z,17.70
2018-02-22T03:27:32.725Z,18.00
2018-02-22T03:30:00.305Z,18.17
2018-02-22T03:32:28.532Z,17.17
2018-02-22T03:34:56.012Z,18.27
2018-02-22T03:37:23.492Z,18.70
2018-02-22T03:39:51.734Z,18.33
2018-02-22T03:42:19.197Z,17.47
2018-02-22T03:44:46.686Z,18.13
2018-02-22T03:47:14.918Z,18.40
2018-02-22T03:49:42.394Z,17.40
2018-02-22T03:52:09.870Z,17.57
2018-02-22T03:54:38.265Z,17.53
2018-02-22T03:57:05.741Z,16.73
2018-02-22T03:59:33.218Z,16.03
2018-02-22T04:02:00.701Z,16.93
2018-02-22T04:04:28.164Z,16.77
2018-02-22T04:06:56.406Z,17.47
2018-02-22T04:09:23.879Z,17.10
2018-02-22T04:11:51.361Z,18.17
2018-02-22T04:14:19.589Z,16.77
2018-02-22T04:16:47.086Z,16.60
2018-02-22T04:19:15.429Z,16.10
2018-02-22T04:21:42.917Z,15.83
2018-02-22T04:24:10.374Z,18.63
2018-02-22T04:26:37.856Z,18.13
2018-02-22T04:29:06.081Z,17.37
2018-02-22T04:31:33.569Z,17.20
2018-02-22T04:34:01.802Z,16.13
2018-02-22T04:36:29.278Z,16.40
2018-02-22T04:38:56.737Z,18.00
2018-02-22T04:41:24.245Z,16.63
2018-02-22T04:43:51.745Z,17.40
2018-02-22T04:46:19.317Z,16.20
2018-02-22T04:48:46.950Z,17.70
2018-02-22T04:51:14.542Z,15.80
2018-02-22T04:53:42.081Z,17.70
2018-02-22T04:56:09.570Z,16.37
2018-02-22T04:58:37.826Z,15.23
2018-02-22T05:01:05.300Z,15.93
2018-02-22T05:03:32.773Z,15.00
2018-02-22T05:06:01.051Z,15.50
2018-02-22T05:08:29.286Z,14.73
2018-02-22T05:10:56.780Z,15.90
2018-02-22T05:13:25.066Z,17.40
2018-02-22T05:15:52.534Z,16.17
2018-02-22T05:18:20.027Z,15.03
2018-02-22T05:20:47.532Z,16.23
2018-02-22T05:23:15.097Z,15.47
2018-02-22T05:25:42.599Z,14.83
2018-02-22T05:28:10.055Z,16.03
2018-02-22T05:30:37.538Z,15.00
2018-02-22T05:33:05.005Z,14.30
2018-02-22T05:35:33.246Z,15.00
2018-02-22T05:38:00.800Z,14.53
2018-02-22T05:40:28.372Z,14.30
2018-02-22T05:42:55.846Z,14.33
2018-02-22T05:45:23.322Z,14.40
2018-02-22T05:47:51.562Z,13.50
2018-02-22T05:50:19.033Z,14.00
2018-02-22T05:52:46.492Z,14.17
2018-02-22T05:55:14.011Z,14.10
2018-02-22T05:57:41.481Z,12.83
2018-02-22T06:00:09.174Z,13.50
2018-02-22T06:02:37.397Z,14.90
2018-02-22T06:05:04.882Z,12.07
2018-02-22T06:07:32.353Z,14.00
2018-02-22T06:09:59.830Z,13.20
2018-02-22T06:12:28.065Z,14.27
2018-02-22T06:14:55.533Z,13.83
2018-02-22T06:17:23.101Z,13.97
2018-02-22T06:19:50.574Z,13.57
2018-02-22T06:22:18.813Z,13.53
2018-02-22T06:24:46.294Z,13.80
2018-02-22T06:27:13.769Z,12.93
2018-02-22T06:29:42.006Z,14.70
2018-02-22T06:32:09.475Z,14.50
2018-02-22T06:34:36.953Z,14.93
2018-02-22T06:37:05.189Z,14.07
2018-02-22T06:39:32.667Z,14.10
2018-02-22T06:42:00.142Z,14.90
2018-02-22T06:44:28.494Z,13.53
2018-02-22T06:46:55.925Z,13.43
2018-02-22T06:49:23.464Z,14.80
2018-02-22T06:51:50.944Z,13.50
2018-02-22T06:54:18.406Z,13.53
2018-02-22T06:56:45.893Z,15.70
2018-02-22T06:59:13.394Z,15.60
2018-02-22T07:01:40.856Z,15.63
2018-02-22T07:04:09.330Z,13.60
2018-02-22T07:06:36.957Z,13.33
2018-02-22T07:09:05.199Z,12.97
2018-02-22T07:11:32.746Z,14.10
2018-02-22T07:14:00.220Z,13.57
2018-02-22T07:16:27.680Z,13.87
2018-02-22T07:18:55.172Z,12.27
2018-02-22T07:21:23.993Z,12.90
2018-02-22T07:23:51.476Z,14.67
2018-02-22T07:26:18.954Z,14.30
2018-02-22T07:28:47.961Z,14.70
2018-02-22T07:31:15.422Z,14.80
2018-02-22T07:33:43.667Z,15.97
2018-02-22T07:36:11.156Z,15.37
2018-02-22T07:38:39.400Z,15.63
2018-02-22T07:41:07.744Z,16.40
2018-02-22T07:43:35.256Z,15.67
2018-02-22T07:46:03.500Z,15.60
2018-02-22T07:48:31.131Z,16.80
2018-02-22T07:50:58.597Z,17.10
2018-02-22T07:53:26.085Z,17.27
2018-02-22T07:55:53.668Z,14.90
2018-02-22T07:58:21.926Z,14.60
2018-02-22T08:00:49.396Z,16.30
2018-02-22T08:03:17.656Z,14.07
2018-02-22T08:05:45.140Z,13.40
2018-02-22T08:08:13.586Z,14.53
2018-02-22T08:10:41.082Z,13.70
2018-02-22T08:13:09.309Z,13.67
2018-02-22T08:15:36.788Z,13.80
2018-02-22T08:18:05.018Z,12.53
2018-02-22T08:20:32.504Z,13.37
2018-02-22T08:23:00.054Z,11.90
2018-02-22T08:25:27.750Z,13.47
2018-02-22T08:27:55.373Z,12.50
2018-02-22T08:30:22.971Z,12.60
2018-02-22T08:32:50.458Z,14.87
2018-02-22T08:35:18.083Z,13.97
2018-02-22T08:37:45.748Z,33.20
2018-02-22T08:40:13.234Z,16.43
2018-02-22T08:42:40.832Z,16.10
2018-02-22T08:45:08.301Z,17.83
2018-02-22T08:47:35.801Z,13.77
2018-02-22T08:50:04.041Z,12.93
2018-02-22T08:52:31.522Z,12.73
2018-02-22T08:54:59.769Z,11.33
2018-02-22T08:57:27.272Z,12.27
2018-02-22T08:59:55.486Z,11.77
2018-02-22T09:02:23.072Z,11.37
2018-02-22T09:04:50.653Z,11.80
2018-02-22T09:07:18.898Z,12.60
2018-02-22T09:09:46.453Z,11.63
2018-02-22T09:12:14.303Z,12.10
2018-02-22T09:14:41.775Z,11.00
2018-02-22T09:17:09.478Z,11.03
2018-02-22T09:19:38.068Z,12.97
2018-02-22T09:22:05.982Z,11.20
2018-02-22T09:24:34.357Z,12.83
2018-02-22T09:27:01.927Z,11.50
2018-02-22T09:29:29.524Z,11.53
2018-02-22T09:31:57.776Z,10.13
2018-02-22T09:34:25.245Z,11.63
2018-02-22T09:36:53.503Z,11.90
2018-02-22T09:39:21.793Z,10.27
2018-02-22T09:41:49.357Z,10.67
2018-02-22T09:44:17.689Z,10.97
2018-02-22T09:46:45.253Z,11.13
2018-02-22T09:49:12.810Z,10.97
2018-02-22T09:51:40.331Z,11.50
2018-02-22T09:54:09.406Z,10.83
2018-02-22T09:56:37.981Z,12.43
2018-02-22T09:59:05.544Z,10.87
2018-02-22T10:01:33.821Z,11.27
2018-02-22T10:04:02.081Z,11.50
2018-02-22T10:06:29.581Z,12.53
2018-02-22T10:08:57.220Z,11.20
2018-02-22T10:11:25.462Z,11.37
2018-02-22T10:13:52.934Z,11.80
2018-02-22T10:16:20.463Z,12.00
2018-02-22T10:18:47.954Z,12.43
2018-02-22T10:21:16.205Z,11.97
2018-02-22T10:23:43.690Z,12.60
2018-02-22T10:26:11.248Z,12.13
2018-02-22T10:28:38.857Z,12.07
2018-02-22T10:31:06.381Z,12.90
2018-02-22T10:33:34.616Z,12.60
2018-02-22T10:36:02.206Z,11.87
2018-02-22T10:38:30.461Z,11.47
2018-02-22T10:40:57.938Z,12.37
2018-02-22T10:43:26.193Z,10.70
2018-02-22T10:45:53.676Z,10.50
2018-02-22T10:48:21.950Z,11.60
2018-02-22T10:50:49.410Z,11.50
2018-02-22T10:53:17.677Z,10.70
2018-02-22T10:55:45.232Z,11.60
2018-02-22T10:58:13.581Z,11.10
2018-02-22T11:00:58.703Z,10.80
2018-02-22T11:03:26.945Z,9.77
2018-02-22T11:05:54.455Z,10.13
2018-02-22T11:08:21.938Z,8.53
2018-02-22T11:10:49.418Z,8.53
2018-02-22T11:13:16.897Z,8.53
2018-02-22T11:15:45.231Z,7.80
2018-02-22T11:18:12.772Z,7.93
2018-02-22T11:20:40.256Z,8.30
2018-02-22T11:23:07.742Z,8.70
2018-02-22T11:25:35.219Z,8.10
2018-02-22T11:28:03.472Z,9.57
2018-02-22T11:30:30.939Z,8.77
2018-02-22T11:33:00.011Z,9.00
2018-02-22T11:35:27.486Z,9.27
2018-02-22T11:37:55.736Z,8.70
2018-02-22T11:40:23.385Z,10.63
2018-02-22T11:42:50.874Z,12.30
2018-02-22T11:45:18.353Z,11.57
2018-02-22T11:47:45.856Z,10.40
2018-02-22T11:50:13.335Z,10.00
2018-02-22T11:52:40.819Z,10.80
2018-02-22T11:55:09.049Z,9.17
2018-02-22T11:57:36.522Z,8.60
2018-02-22T12:00:04.016Z,8.43
2018-02-22T12:02:31.487Z,8.63
2018-02-22T12:04:58.956Z,8.50
2018-02-22T12:07:27.236Z,8.23
2018-02-22T12:09:54.694Z,8.80
2018-02-22T12:12:22.166Z,8.63
2018-02-22T12:14:49.731Z,8.00
2018-02-22T12:17:17.396Z,7.90
2018-02-22T12:19:44.865Z,7.87
2018-02-22T12:22:12.381Z,8.73
2018-02-22T12:24:39.849Z,8.30
2018-02-22T12:27:07.325Z,8.13
2018-02-22T12:29:34.812Z,7.87
2018-02-22T12:32:03.028Z,8.27
2018-02-22T12:34:30.509Z,8.23
2018-02-22T12:36:57.989Z,7.90
2018-02-22T12:39:26.227Z,9.30
2018-02-22T12:41:55.857Z,9.40
2018-02-22T12:44:23.334Z,9.50
2018-02-22T12:46:51.601Z,8.07
2018-02-22T12:49:19.073Z,9.53
2018-02-22T12:51:47.318Z,8.80
2018-02-22T12:54:14.794Z,9.53
2018-02-22T12:56:42.304Z,8.50
2018-02-22T12:59:10.011Z,8.87
2018-02-22T13:01:37.479Z,8.30
2018-02-22T13:04:05.745Z,9.13
2018-02-22T13:06:33.204Z,8.93
2018-02-22T13:09:00.674Z,10.30
2018-02-22T13:11:28.912Z,9.17
2018-02-22T13:13:56.376Z,9.07
2018-02-22T13:16:23.940Z,9.70
2018-02-22T13:18:51.417Z,9.90
2018-02-22T13:21:19.682Z,9.20
2018-02-22T13:23:47.229Z,9.57
2018-02-22T13:26:14.733Z,10.30
2018-02-22T13:28:42.258Z,9.50
2018-02-22T13:31:09.837Z,10.33
2018-02-22T13:33:49.894Z,11.20
2018-02-22T13:36:18.125Z,9.70
2018-02-22T13:38:57.632Z,9.50
2018-02-22T13:41:25.121Z,9.83
2018-02-22T13:44:04.453Z,9.43
2018-02-22T13:46:31.933Z,10.33
2018-02-22T13:49:11.262Z,10.80
2018-02-22T13:51:38.743Z,10.70
2018-02-22T13:54:07.034Z,9.37
2018-02-22T13:56:46.391Z,9.33
2018-02-22T13:59:14.081Z,8.80
2018-02-22T14:01:53.381Z,9.90
2018-02-22T14:04:20.973Z,9.23
2018-02-22T14:06:48.440Z,9.43
2018-02-22T14:09:16.094Z,9.50
2018-02-22T14:11:43.719Z,9.30
2018-02-22T14:14:11.242Z,8.50
2018-02-22T14:16:38.789Z,9.47
2018-02-22T14:19:06.282Z,8.10
2018-02-22T14:21:33.998Z,8.70
2018-02-22T14:24:02.290Z,8.93
2018-02-22T14:26:30.430Z,8.40
2018-02-22T14:29:02.309Z,8.90
2018-02-22T14:31:29.774Z,7.97
2018-02-22T14:33:57.284Z,8.57
2018-02-22T14:36:24.752Z,7.73
2018-02-22T14:38:52.274Z,8.23
2018-02-22T14:41:19.705Z,8.07
2018-02-22T14:43:47.176Z,8.63
2018-02-22T14:46:15.439Z,7.57
2018-02-22T14:48:42.927Z,7.57
2018-02-22T14:51:10.402Z,7.67
2018-02-22T14:53:37.988Z,7.80
2018-02-22T14:56:05.445Z,8.30
2018-02-22T14:58:32.979Z,8.47
2018-02-22T15:01:06.182Z,8.47
2018-02-22T15:03:33.644Z,7.53
2018-02-22T15:06:01.143Z,7.40
2018-02-22T15:08:28.652Z,8.40
2018-02-22T15:10:56.126Z,7.67
2018-02-22T15:13:23.585Z,8.90
2018-02-22T15:15:51.058Z,8.47
2018-02-22T15:18:18.684Z,8.20
2018-02-22T15:20:46.171Z,8.50
2018-02-22T15:23:13.649Z,9.10
2018-02-22T15:25:41.925Z,8.50
2018-02-22T15:28:10.159Z,7.73
2018-02-22T15:30:37.643Z,9.37
2018-02-22T15:33:05.183Z,9.07
2018-02-22T15:35:32.706Z,7.90
2018-02-22T15:38:00.245Z,8.90
2018-02-22T15:40:28.697Z,9.10
2018-02-22T15:42:57.673Z,8.87
2018-02-22T15:45:25.157Z,8.27
2018-02-22T15:47:53.381Z,8.73
2018-02-22T15:50:20.862Z,8.30
2018-02-22T15:52:48.344Z,9.47
2018-02-22T15:55:15.938Z,9.07
2018-02-22T15:57:43.524Z,9.20
2018-02-22T16:00:10.994Z,7.77
2018-02-22T16:02:38.550Z,9.20
2018-02-22T16:05:06.027Z,9.13
2018-02-22T16:07:34.265Z,8.10
2018-02-22T16:10:01.735Z,8.80
2018-02-22T16:12:29.221Z,9.30
2018-02-22T16:14:56.936Z,8.90
2018-02-22T16:17:24.425Z,9.00
2018-02-22T16:19:51.922Z,9.30
2018-02-22T16:22:20.173Z,9.40
2018-02-22T16:24:47.642Z,8.33
2018-02-22T16:27:15.890Z,9.40
2018-02-22T16:29:43.449Z,9.83
2018-02-22T16:32:10.959Z,8.73
2018-02-22T16:34:38.514Z,8.97
2018-02-22T16:37:06.168Z,8.80
2018-02-22T16:39:33.781Z,9.27
2018-02-22T16:42:01.313Z,8.93
2018-02-22T16:44:28.876Z,9.20
2018-02-22T16:46:56.369Z,9.63
2018-02-22T16:49:23.899Z,9.20
2018-02-22T16:51:51.393Z,8.80
2018-02-22T16:54:19.072Z,8.83
2018-02-22T16:56:47.367Z,10.13
2018-02-22T16:59:14.904Z,9.90
2018-02-22T17:01:43.369Z,9.90
2018-02-22T17:04:10.847Z,10.10
2018-02-22T17:06:39.111Z,9.50
2018-02-22T17:09:07.509Z,9.53
2018-02-22T17:11:35.126Z,9.63
2018-02-22T17:14:04.147Z,11.00
2018-02-22T17:16:32.408Z,10.53
2018-02-22T17:19:00.026Z,10.33
2018-02-22T17:21:28.328Z,10.53
2018-02-22T17:23:55.859Z,9.70
2018-02-22T17:26:28.899Z,11.03
2018-02-22T17:29:02.009Z,10.23
2018-02-22T17:31:35.172Z,10.53
2018-02-22T17:34:02.659Z,10.93
2018-02-22T17:36:34.670Z,11.77
2018-02-22T17:39:17.996Z,10.80
2018-02-22T17:41:45.578Z,11.67
2018-02-22T17:44:13.046Z,10.80
2018-02-22T17:46:40.525Z,10.63
2018-02-22T17:49:08.892Z,11.40
2018-02-22T17:51:37.150Z,10.43
2018-02-22T17:54:04.785Z,12.00
2018-02-22T17:56:32.316Z,11.10
2018-02-22T17:58:59.787Z,10.80
2018-02-22T18:01:27.452Z,11.97
2018-02-22T18:03:54.944Z,11.90
2018-02-22T18:06:22.436Z,10.67
2018-02-22T18:08:49.959Z,13.03
2018-02-22T18:11:17.485Z,13.07
2018-02-22T18:13:44.990Z,12.30
2018-02-22T18:16:13.253Z,12.63
2018-02-22T18:18:41.545Z,12.17
2018-02-22T18:21:10.022Z,12.13
2018-02-22T18:23:38.570Z,13.10
2018-02-22T18:26:06.211Z,13.60
2018-02-22T18:28:33.892Z,13.50
2018-02-22T18:31:01.636Z,13.03
2018-02-22T18:33:29.228Z,13.60
2018-02-22T18:35:58.709Z,12.20
2018-02-22T18:38:26.492Z,12.97
2018-02-22T18:41:00.006Z,12.83
2018-02-22T18:43:33.154Z,13.07
2018-02-22T18:46:00.708Z,13.87
2018-02-22T18:48:28.227Z,13.23
2018-02-22T18:50:55.931Z,13.70
2018-02-22T18:53:23.460Z,13.30
2018-02-22T18:55:50.997Z,13.53
2018-02-22T18:58:18.519Z,12.50
2018-02-22T19:00:46.098Z,12.90
2018-02-22T19:03:13.767Z,13.23
2018-02-22T19:05:41.348Z,13.30
2018-02-22T19:08:08.845Z,12.83
2018-02-22T19:10:36.478Z,13.73
2018-02-22T19:13:04.746Z,12.33
2018-02-22T19:15:32.995Z,13.47
2018-02-22T19:18:00.483Z,12.93
2018-02-22T19:20:28.736Z,14.13
2018-02-22T19:22:56.457Z,12.77
2018-02-22T19:25:23.954Z,13.57
2018-02-22T19:27:51.426Z,12.73
2018-02-22T19:30:19.690Z,12.53
2018-02-22T19:32:47.994Z,14.30
2018-02-22T19:35:15.506Z,12.10
2018-02-22T19:37:43.188Z,13.20
2018-02-22T19:40:11.487Z,13.03
2018-02-22T19:42:40.001Z,12.80
2018-02-22T19:45:07.724Z,12.10
2018-02-22T19:47:36.101Z,12.80
2018-02-22T19:50:03.822Z,11.67
2018-02-22T19:52:31.407Z,12.27
2018-02-22T19:54:59.735Z,12.97
2018-02-22T19:57:27.423Z,11.90
2018-02-22T19:59:54.967Z,11.60
2018-02-22T20:02:22.502Z,11.83
2018-02-22T20:04:50.360Z,12.10
2018-02-22T20:07:17.910Z,11.53
2018-02-22T20:09:46.202Z,10.53
2018-02-22T20:12:13.766Z,11.53
2018-02-22T20:14:41.357Z,13.80
2018-02-22T20:17:08.892Z,10.70
2018-02-22T20:19:36.361Z,12.30
2018-02-22T20:22:03.945Z,11.50
2018-02-22T20:24:32.317Z,11.67
2018-02-22T20:26:59.787Z,11.30
2018-02-22T20:29:27.296Z,10.80
2018-02-22T20:31:54.806Z,11.10
2018-02-22T20:34:22.487Z,10.90
2018-02-22T20:36:50.737Z,12.37
2018-02-22T20:39:19.008Z,11.17
2018-02-22T20:41:46.477Z,11.40
2018-02-22T20:44:13.954Z,11.17
2018-02-22T20:46:42.292Z,10.20
2018-02-22T20:49:09.769Z,10.80
2018-02-22T20:51:37.733Z,9.10
2018-02-22T20:54:05.219Z,10.13
2018-02-22T20:56:33.481Z,10.63
2018-02-22T20:59:01.755Z,9.60
2018-02-22T21:01:29.999Z,9.90
2018-02-22T21:03:57.466Z,9.60
2018-02-22T21:06:24.945Z,9.57
2018-02-22T21:08:53.178Z,9.17
2018-02-22T21:11:20.666Z,8.90
2018-02-22T21:13:48.132Z,9.63
2018-02-22T21:16:15.602Z,10.10
2018-02-22T21:18:43.828Z,9.07
2018-02-22T21:21:11.321Z,9.70
2018-02-22T21:23:39.551Z,7.93
2018-02-22T21:26:07.627Z,9.23
2018-02-22T21:28:35.600Z,9.30
2018-02-22T21:31:03.019Z,9.37
2018-02-22T21:33:30.505Z,8.47
2018-02-22T21:35:57.993Z,9.37
2018-02-22T21:38:25.484Z,9.23
2018-02-22T21:40:53.716Z,9.63
2018-02-22T21:43:21.201Z,9.03
2018-02-22T21:45:49.424Z,8.70
2018-02-22T21:48:16.894Z,9.00
2018-02-22T21:50:44.373Z,8.37
2018-02-22T21:53:13.362Z,9.43
2018-02-22T21:55:40.823Z,10.33
2018-02-22T21:58:08.287Z,8.80
2018-02-22T22:00:35.769Z,9.53
2018-02-22T22:03:03.293Z,9.27
2018-02-22T22:05:30.777Z,9.10
2018-02-22T22:07:59.034Z,9.53
2018-02-22T22:10:27.371Z,9.37
2018-02-22T22:12:54.853Z,9.00
2018-02-22T22:15:22.318Z,9.00
2018-02-22T22:17:49.839Z,9.23
2018-02-22T22:20:17.337Z,9.40
2018-02-22T22:22:44.937Z,8.80
2018-02-22T22:25:12.663Z,9.80
2018-02-22T22:27:40.158Z,9.30
2018-02-22T22:30:08.465Z,8.47
2018-02-22T22:32:35.995Z,8.53
2018-02-22T22:35:03.474Z,8.60
2018-02-22T22:37:31.602Z,9.30
2018-02-22T22:39:59.958Z,9.07
2018-02-22T22:42:27.431Z,8.43
2018-02-22T22:44:55.662Z,8.47
2018-02-22T22:47:23.129Z,8.40
2018-02-22T22:49:51.562Z,8.80
2018-02-22T22:52:19.145Z,8.20
2018-02-22T22:54:46.646Z,9.00
2018-02-22T22:57:14.117Z,8.87
2018-02-22T22:59:42.480Z,8.63
2018-02-22T23:02:10.600Z,8.30
2018-02-22T23:04:38.062Z,8.40
2018-02-22T23:07:05.548Z,8.73
2018-02-22T23:09:33.035Z,8.03
2018-02-22T23:12:00.600Z,8.10
2018-02-22T23:14:28.842Z,7.83
2018-02-22T23:16:56.304Z,8.63
2018-02-22T23:19:23.781Z,8.10
2018-02-22T23:21:52.020Z,8.53
2018-02-22T23:24:19.519Z,8.50
2018-02-22T23:26:47.753Z,8.63
2018-02-22T23:29:15.228Z,7.87
2018-02-22T23:31:42.699Z,8.63
2018-02-22T23:34:10.933Z,8.97
2018-02-22T23:36:38.405Z,8.17
2018-02-22T23:39:05.876Z,8.43
2018-02-22T23:41:36.234Z,8.80
2018-02-22T23:44:04.476Z,8.23
2018-02-22T23:46:31.945Z,8.87
2018-02-22T23:48:59.424Z,8.40
2018-02-22T23:51:27.673Z,9.47
2018-02-22T23:53:55.156Z,8.70
2018-02-22T23:56:22.618Z,9.37
2018-02-22T23:58:50.094Z,9.30
